Terminal Aerodrome Forecast
Issued by NWS

Home | Current Version | Previous Version | Text Only | Print | Product List | Glossary On
Versions: 1 2 3 4 5 6 7 8 9 10 11 12 13 14 15 16 17 18 19 20 21 22 23
000
FTPQ31 PGUM 240526
TAFKWA
TAF
PKWA 240526Z 2406/2506 07010KT P6SM -SHRA SCT018 BKN120
     FM240800 05010KT P6SM VCSH SCT018 BKN120=

USA.gov is the U.S. government's official web portal to all federal, state and local government web resources and services.